Time;durP1;ratioP1;P1;durP2;ratioP2;P2;SDS_P1;SDS_P2;PMS_P1;PMS_P2;Temp;Humidity;BMP_temperature;BMP_pressure;BME280_temperature;BME280_humidity;BME280_pressure;Samples;Min_cycle;Max_cycle;Signal;HPM_P1;HPM_P2
2022/09/12 00:08:39;;;;;;;0.83;0.80;;;;;;;23.65;46.08;100091.81;20654121;28;20120;-75
2022/09/12 00:18:39;;;;;;;0.90;0.90;;;;;;;23.64;46.22;100084.91;20661255;28;20416;-75
2022/09/12 00:28:40;;;;;;;1.55;0.90;;;;;;;23.66;46.33;100085.56;20674355;28;20041;-76
2022/09/12 00:38:42;;;;;;;0.97;0.90;;;;;;;23.65;46.39;100098.94;20659100;28;20055;-76
2022/09/12 00:48:48;;;;;;;1.20;0.90;;;;;;;23.64;46.33;100089.34;20660140;28;20058;-76
2022/09/12 00:58:57;;;;;;;1.40;1.00;;;;;;;23.63;45.98;100082.38;20665871;28;20049;-76
2022/09/12 01:09:02;;;;;;;1.10;1.00;;;;;;;23.64;46.23;100095.47;20662233;28;20063;-76
2022/09/12 01:19:14;;;;;;;1.00;0.90;;;;;;;23.61;46.35;100102.84;20662874;28;20053;-75
2022/09/12 01:29:39;;;;;;;1.10;1.00;;;;;;;23.59;46.41;100107.44;20657022;28;20042;-77
2022/09/12 01:39:47;;;;;;;1.50;1.23;;;;;;;23.60;46.24;100103.81;20655784;28;20038;-77
2022/09/12 01:50:05;;;;;;;1.63;0.93;;;;;;;23.57;46.49;100104.09;20665363;28;20049;-76
2022/09/12 02:00:11;;;;;;;1.00;1.00;;;;;;;23.58;46.28;100109.25;20673954;28;20053;-75
2022/09/12 02:10:11;;;;;;;0.90;0.90;;;;;;;23.60;46.19;100090.59;20659106;28;20855;-76
2022/09/12 02:20:34;;;;;;;0.90;0.90;;;;;;;23.54;46.45;100081.41;20655732;28;20088;-76
2022/09/12 02:30:51;;;;;;;1.05;0.93;;;;;;;23.53;46.59;100079.75;20661831;28;20053;-76
2022/09/12 02:40:52;;;;;;;0.90;0.90;;;;;;;23.57;46.43;100090.88;20678722;28;20068;-76
2022/09/12 02:50:53;;;;;;;1.10;1.00;;;;;;;23.57;46.44;100094.38;20668048;28;20056;-77
2022/09/12 03:01:02;;;;;;;0.90;0.90;;;;;;;23.56;46.47;100102.41;20665381;28;20503;-77
2022/09/12 03:11:06;;;;;;;2.08;1.08;;;;;;;23.56;46.37;100094.47;20665371;28;20046;-77
2022/09/12 03:21:39;;;;;;;1.27;1.17;;;;;;;23.51;46.46;100110.78;20646501;28;20041;-77
2022/09/12 03:31:54;;;;;;;2.40;1.20;;;;;;;23.50;46.52;100117.88;20648919;28;20133;-77
2022/09/12 03:41:55;;;;;;;1.30;1.20;;;;;;;23.52;46.55;100116.91;20664421;28;20062;-76
2022/09/12 03:51:55;;;;;;;1.27;1.13;;;;;;;23.50;46.74;100104.66;20661957;28;20049;-76
2022/09/12 04:01:56;;;;;;;1.95;1.30;;;;;;;23.48;46.69;100111.06;20665763;28;20500;-76
2022/09/12 04:11:56;;;;;;;1.17;1.10;;;;;;;23.47;46.79;100112.88;20659086;28;20049;-77
2022/09/12 04:21:57;;;;;;;1.10;1.10;;;;;;;23.49;46.74;100112.72;20652362;28;20046;-76
2022/09/12 04:31:57;;;;;;;1.30;1.20;;;;;;;23.49;47.08;100115.38;20662125;28;20046;-76
2022/09/12 04:41:59;;;;;;;4.90;1.30;;;;;;;23.50;47.45;100109.94;20665870;28;20704;-74
2022/09/12 04:51:59;;;;;;;3.33;1.47;;;;;;;23.51;47.51;100113.44;20657604;28;20432;-75
2022/09/12 05:02:00;;;;;;;2.08;1.30;;;;;;;23.50;47.83;100123.16;20649621;28;20093;-75
2022/09/12 05:12:01;;;;;;;10.43;1.70;;;;;;;23.53;47.63;100134.41;20660714;28;20601;-75
2022/09/12 05:22:03;;;;;;;7.38;2.30;;;;;;;23.46;46.76;100147.34;20654362;28;20103;-77
2022/09/12 05:32:04;;;;;;;23.65;3.40;;;;;;;23.49;47.03;100149.72;20672326;28;20084;-78
2022/09/12 05:42:05;;;;;;;14.70;3.40;;;;;;;23.52;46.99;100172.41;20662936;28;20042;-78
2022/09/12 05:52:07;;;;;;;10.43;2.47;;;;;;;23.44;46.54;100167.81;20672862;28;20042;-77
2022/09/12 06:02:09;;;;;;;9.38;2.55;;;;;;;23.51;46.40;100179.50;20650120;28;20048;-75
2022/09/12 06:12:10;;;;;;;7.22;2.60;;;;;;;23.46;46.26;100182.56;20679495;28;20061;-78
2022/09/12 06:22:10;;;;;;;5.85;2.95;;;;;;;23.47;46.43;100165.72;20694839;28;20038;-75
2022/09/12 06:32:11;;;;;;;3.80;2.50;;;;;;;23.49;46.13;100182.25;20697164;28;21977;-74
2022/09/12 06:42:13;;;;;;;3.57;2.50;;;;;;;23.55;46.21;100185.34;20688999;28;20069;-74
2022/09/12 06:52:14;;;;;;;4.50;2.50;;;;;;;23.57;46.26;100194.78;20692135;28;20420;-74
2022/09/12 07:02:14;;;;;;;3.42;2.65;;;;;;;23.62;46.02;100194.34;20697885;28;20041;-74
2022/09/12 07:12:15;;;;;;;3.40;2.50;;;;;;;23.60;46.19;100191.84;20689338;28;20173;-74
2022/09/12 07:22:15;;;;;;;5.83;2.73;;;;;;;23.60;46.08;100204.25;20710875;28;20141;-74
2022/09/12 07:32:16;;;;;;;4.05;2.58;;;;;;;23.62;46.12;100210.22;20714139;28;20103;-74
2022/09/12 07:42:16;;;;;;;4.20;2.50;;;;;;;23.64;46.18;100211.78;20716575;28;20052;-74
2022/09/12 07:52:17;;;;;;;5.38;2.65;;;;;;;23.66;45.87;100207.16;20710402;28;20045;-74
2022/09/12 08:02:18;;;;;;;3.60;2.80;;;;;;;23.67;45.87;100197.44;20703636;28;20041;-74
2022/09/12 08:12:19;;;;;;;3.22;2.80;;;;;;;23.71;45.83;100192.72;20661804;28;20056;-75
2022/09/12 08:22:20;;;;;;;3.10;2.57;;;;;;;23.74;45.97;100206.47;20670886;28;20069;-75
2022/09/12 08:32:21;;;;;;;2.47;2.17;;;;;;;23.77;45.92;100206.19;20663588;28;20037;-74
2022/09/12 08:42:32;;;;;;;4.90;2.38;;;;;;;23.82;46.09;100201.31;20681551;28;20143;-74
2022/09/12 08:53:01;;;;;;;3.45;2.63;;;;;;;23.87;46.17;100192.13;20697050;28;20116;-74
2022/09/12 09:03:19;;;;;;;3.10;2.60;;;;;;;23.90;45.82;100190.03;20696433;28;20554;-74
2022/09/12 09:24:12;;;;;;;2.97;2.65;;;;;;;23.91;46.08;100183.78;20699804;28;20042;-74
2022/09/12 09:34:22;;;;;;;3.17;2.80;;;;;;;23.96;46.10;100184.22;20692168;28;20129;-74
2022/09/12 09:44:22;;;;;;;3.92;3.28;;;;;;;24.01;45.96;100185.59;20663602;28;20050;-74
2022/09/12 09:54:41;;;;;;;4.45;3.28;;;;;;;24.03;46.08;100181.00;20682613;28;20040;-75
2022/09/12 10:04:53;;;;;;;3.25;2.95;;;;;;;24.03;45.65;100179.16;20698060;28;20053;-75
2022/09/12 10:14:59;;;;;;;2.95;2.65;;;;;;;24.06;45.58;100175.41;20718195;28;20045;-75
2022/09/12 10:25:00;;;;;;;4.07;2.70;;;;;;;24.07;45.76;100180.56;20702883;28;20052;-75
2022/09/12 10:35:08;;;;;;;4.03;2.63;;;;;;;24.07;45.35;100187.66;20709699;28;20046;-74
2022/09/12 10:45:21;;;;;;;2.80;2.38;;;;;;;24.05;45.11;100177.22;20714275;28;20034;-74
2022/09/12 10:55:31;;;;;;;4.10;2.58;;;;;;;24.10;45.14;100163.56;20723268;28;20044;-74
2022/09/12 11:05:52;;;;;;;9.27;4.05;;;;;;;24.13;45.44;100161.47;20721742;28;20050;-74
2022/09/12 11:16:07;;;;;;;6.27;3.20;;;;;;;24.17;45.23;100164.66;20709657;28;20034;-75
2022/09/12 11:26:43;;;;;;;4.13;2.55;;;;;;;24.19;44.84;100148.66;20711648;28;20046;-76
2022/09/12 11:37:02;;;;;;;5.72;2.70;;;;;;;24.30;45.04;100157.25;20708826;28;20046;-75
2022/09/12 11:47:13;;;;;;;3.35;2.40;;;;;;;24.32;44.53;100148.34;20733695;28;20129;-75
2022/09/12 11:57:25;;;;;;;4.63;2.10;;;;;;;24.28;44.10;100159.19;20703391;28;20073;-73
2022/09/12 12:07:29;;;;;;;2.75;2.10;;;;;;;24.28;44.17;100155.72;20704631;28;20064;-73
2022/09/12 12:17:30;;;;;;;2.55;1.90;;;;;;;24.31;44.60;100147.47;20707702;28;20072;-74
2022/09/12 12:27:58;;;;;;;3.67;1.85;;;;;;;24.33;44.26;100134.09;20713616;28;20042;-75
2022/09/12 12:37:58;;;;;;;2.83;1.95;;;;;;;24.36;43.92;100129.34;20701895;28;20109;-74
2022/09/12 12:48:07;;;;;;;2.80;2.10;;;;;;;24.41;44.37;100128.91;20696267;28;20048;-74
2022/09/12 12:58:27;;;;;;;3.28;2.15;;;;;;;24.36;43.01;100115.31;20697122;28;20042;-74
2022/09/12 13:08:30;;;;;;;1.85;1.67;;;;;;;24.42;42.28;100120.81;20689483;28;20050;-73
2022/09/12 13:18:43;;;;;;;3.20;1.60;;;;;;;24.49;42.18;100126.38;20699235;28;20042;-75
2022/09/12 13:28:43;;;;;;;1.70;1.50;;;;;;;24.54;41.32;100110.88;20716726;28;20056;-74
2022/09/12 13:38:55;;;;;;;5.25;1.52;;;;;;;24.64;40.69;100099.41;20699556;28;20042;-74
2022/09/12 13:49:05;;;;;;;3.53;1.52;;;;;;;24.63;39.95;100090.63;20698330;28;20054;-74
2022/09/12 13:59:11;;;;;;;3.42;1.60;;;;;;;24.67;39.40;100084.09;20670278;28;20044;-74
2022/09/12 14:09:23;;;;;;;3.55;1.60;;;;;;;24.74;38.22;100076.38;20688607;28;20072;-74
2022/09/12 14:19:25;;;;;;;1.55;0.93;;;;;;;24.79;36.32;100076.75;20700105;28;20077;-75
2022/09/12 14:29:26;;;;;;;2.17;1.13;;;;;;;24.87;35.71;100070.72;20690348;28;20034;-76
2022/09/12 14:39:29;;;;;;;1.07;0.90;;;;;;;24.85;35.90;100062.94;20701913;28;20100;-75
2022/09/12 14:49:35;;;;;;;3.20;1.00;;;;;;;24.89;36.38;100061.63;20676644;28;20049;-75
2022/09/12 14:59:39;;;;;;;4.30;0.98;;;;;;;24.92;35.77;100066.63;20659473;28;20046;-74
2022/09/12 15:09:41;;;;;;;2.58;0.95;;;;;;;24.96;35.09;100063.69;20652402;28;20054;-76
2022/09/12 15:19:41;;;;;;;4.30;1.10;;;;;;;24.94;36.39;100063.84;20633095;28;20904;-76
2022/09/12 15:29:42;;;;;;;2.13;1.15;;;;;;;24.88;35.50;100064.44;20684772;28;20041;-78
2022/09/12 15:39:45;;;;;;;1.30;1.05;;;;;;;24.84;35.38;100066.56;20690334;28;20519;-73
2022/09/12 15:49:46;;;;;;;2.25;0.93;;;;;;;24.78;34.62;100070.63;20658642;28;20045;-75
2022/09/12 15:59:46;;;;;;;3.05;1.88;;;;;;;24.76;33.22;100072.59;20656855;28;20048;-76
2022/09/12 16:09:47;;;;;;;7.28;1.90;;;;;;;24.72;33.00;100070.41;20659121;28;20141;-76
2022/09/12 16:19:47;;;;;;;5.97;1.10;;;;;;;24.77;31.98;100076.09;20640129;28;20069;-76
2022/09/12 16:29:47;;;;;;;1.42;1.10;;;;;;;24.76;31.93;100077.88;20667502;28;20054;-77
2022/09/12 16:39:48;;;;;;;6.65;3.22;;;;;;;24.69;33.52;100081.28;20664487;28;20095;-80
2022/09/12 16:49:50;;;;;;;8.00;5.63;;;;;;;24.44;33.63;100075.72;20674393;28;21246;-79
2022/09/12 16:59:50;;;;;;;8.73;5.55;;;;;;;24.29;33.75;100070.06;20678923;28;20046;-79
2022/09/12 17:09:51;;;;;;;2.87;2.37;;;;;;;24.13;33.79;100074.19;20670525;28;20064;-80
2022/09/12 17:19:52;;;;;;;2.57;1.70;;;;;;;23.98;33.45;100078.28;20677203;28;20042;-80
2022/09/12 17:29:52;;;;;;;5.10;1.60;;;;;;;23.92;34.39;100084.97;20652087;28;21400;-82
2022/09/12 17:39:53;;;;;;;8.52;1.80;;;;;;;23.97;35.15;100108.34;20644844;28;20444;-77
2022/09/12 17:49:54;;;;;;;123.88;62.83;;;;;;;23.93;35.67;100123.66;20657144;28;20132;-75
2022/09/12 17:59:55;;;;;;;33.30;16.40;;;;;;;23.93;35.87;100128.13;20669227;28;20048;-76
2022/09/12 18:09:57;;;;;;;18.60;7.87;;;;;;;23.88;35.80;100136.44;20725782;28;20610;-76
2022/09/12 18:19:58;;;;;;;9.35;5.65;;;;;;;23.82;35.99;100153.72;20725821;28;20286;-81
2022/09/12 18:29:59;;;;;;;11.10;7.07;;;;;;;23.83;36.81;100163.31;20749788;28;20543;-79
2022/09/12 18:40:00;;;;;;;9.20;4.87;;;;;;;23.76;36.61;100153.47;20726508;28;20111;-77
2022/09/12 18:50:00;;;;;;;5.97;3.50;;;;;;;23.73;36.53;100159.00;20642692;28;20283;-80
2022/09/12 19:00:03;;;;;;;4.43;2.60;;;;;;;23.57;36.57;100163.09;20650357;28;20046;-78
2022/09/12 19:10:04;;;;;;;3.38;2.45;;;;;;;23.68;37.61;100167.38;20658551;28;20128;-78
2022/09/12 19:20:05;;;;;;;4.00;2.60;;;;;;;23.74;37.98;100173.91;20706989;28;20046;-77
2022/09/12 19:30:06;;;;;;;2.63;2.17;;;;;;;23.75;38.66;100171.09;20723019;28;20417;-76
2022/09/12 19:40:07;;;;;;;;;;;;;;;23.70;39.22;100167.25;20690424;28;20046;-77
2022/09/12 19:50:10;;;;;;;2.97;2.20;;;;;;;23.73;39.58;100167.78;20668173;28;19933;-77
2022/09/12 20:00:10;;;;;;;2.92;2.20;;;;;;;23.75;39.87;100170.28;20687665;28;20100;-76
2022/09/12 20:10:12;;;;;;;2.20;2.00;;;;;;;23.75;40.02;100162.34;20680369;28;20128;-78
2022/09/12 20:20:12;;;;;;;2.70;1.80;;;;;;;23.75;40.27;100165.00;20677731;28;20038;-77
2022/09/12 20:30:13;;;;;;;2.80;2.00;;;;;;;23.76;40.78;100164.03;20681193;28;20100;-77
2022/09/12 20:40:14;;;;;;;3.60;2.00;;;;;;;23.74;40.79;100161.53;20664359;28;20750;-77
2022/09/12 20:50:14;;;;;;;1.83;1.63;;;;;;;23.73;40.93;100174.88;20675958;28;20556;-75
2022/09/12 21:00:14;;;;;;;2.65;1.67;;;;;;;23.74;40.70;100184.47;20668457;28;20038;-76
2022/09/12 21:10:15;;;;;;;2.33;1.67;;;;;;;23.71;41.19;100180.31;20679332;28;20394;-78
2022/09/12 21:20:16;;;;;;;2.25;1.77;;;;;;;23.75;41.13;100192.25;20676174;28;20062;-77
2022/09/12 21:30:16;;;;;;;2.40;1.65;;;;;;;23.73;41.44;100212.72;20676419;28;20116;-76
2022/09/12 21:40:16;;;;;;;1.70;1.60;;;;;;;23.73;41.52;100217.16;20663556;28;20030;-76
2022/09/12 21:50:17;;;;;;;2.40;1.60;;;;;;;23.71;41.52;100235.00;20662264;28;20997;-77
2022/09/12 22:00:18;;;;;;;1.87;1.53;;;;;;;23.70;41.76;100233.31;20648004;28;20034;-77
2022/09/12 22:10:19;;;;;;;1.38;1.27;;;;;;;23.70;41.83;100249.19;20662391;28;20596;-78
2022/09/12 22:20:20;;;;;;;1.43;1.33;;;;;;;23.70;41.72;100239.44;20650526;28;20069;-77
2022/09/12 22:30:21;;;;;;;1.85;1.65;;;;;;;23.68;41.97;100230.84;20638680;28;20674;-77
2022/09/12 22:40:21;;;;;;;1.57;1.47;;;;;;;23.69;41.97;100229.84;20644984;28;21643;-77
2022/09/12 22:50:22;;;;;;;1.70;1.50;;;;;;;23.69;42.59;100237.75;20665636;28;20064;-77
2022/09/12 23:00:22;;;;;;;1.50;1.35;;;;;;;23.69;42.71;100236.94;20661961;28;20049;-78
2022/09/12 23:10:24;;;;;;;3.00;1.45;;;;;;;23.69;42.37;100236.94;20676307;28;20964;-78
2022/09/12 23:20:27;;;;;;;2.90;1.73;;;;;;;23.67;42.42;100231.81;20662454;28;20500;-77
2022/09/12 23:30:27;;;;;;;1.30;1.20;;;;;;;23.68;42.69;100225.53;20659331;28;20050;-77
2022/09/12 23:40:28;;;;;;;2.07;1.50;;;;;;;23.67;42.53;100218.59;20652893;28;20038;-77
2022/09/12 23:50:28;;;;;;;2.67;1.30;;;;;;;23.66;42.67;100225.66;20661977;28;20045;-76
